createdAt,value
2022-11-25T00:01:48.860Z,-28.2
2022-11-25T00:03:49.928Z,-28.2
2022-11-25T00:05:51.322Z,-28.1
2022-11-25T00:07:52.989Z,-28.5
2022-11-25T00:09:54.615Z,-28.2
2022-11-25T00:13:57.919Z,-28.2
2022-11-25T00:15:59.122Z,-28.5
2022-11-25T00:18:00.901Z,-28.4
2022-11-25T00:20:02.888Z,-28.4
2022-11-25T00:24:06.103Z,-28.2
2022-11-25T00:26:07.868Z,-28.2
2022-11-25T00:28:09.324Z,-28.4
2022-11-25T00:30:11.316Z,-28.4
2022-11-25T00:32:12.423Z,-28.5
2022-11-25T00:34:14.006Z,-28.4
2022-11-25T00:36:15.507Z,-28.4
2022-11-25T00:38:17.498Z,-28.3
2022-11-25T00:40:19.193Z,-28.5
2022-11-25T00:42:20.396Z,-28.2
2022-11-25T00:44:21.562Z,-28.4
2022-11-25T00:46:22.805Z,-28.3
2022-11-25T00:48:24.398Z,-28.5
2022-11-25T00:50:25.904Z,-28.3
2022-11-25T00:52:27.812Z,-28.5
2022-11-25T00:56:31.284Z,-28.5
2022-11-25T00:58:32.852Z,-28.5
2022-11-25T01:00:34.231Z,-28.4
2022-11-25T01:02:35.358Z,-28.3
2022-11-25T01:08:39.984Z,-28.2
2022-11-25T01:10:41.512Z,-28.5
2022-11-25T01:12:42.875Z,-28.5
2022-11-25T01:14:44.604Z,-28.2
2022-11-25T01:16:46.437Z,-28.2
2022-11-25T01:18:47.755Z,-28.7
2022-11-25T01:20:48.935Z,-28.5
2022-11-25T01:22:50.625Z,-28.4
2022-11-25T01:24:52.071Z,-28.3
2022-11-25T01:26:53.863Z,-28.3
2022-11-25T01:28:55.794Z,-28.6
2022-11-25T01:30:57.474Z,-28.4
2022-11-25T01:32:58.695Z,-28.1
2022-11-25T01:35:00.484Z,-28.4
2022-11-25T01:39:03.963Z,-28.4
2022-11-25T01:41:05.675Z,-28.3
2022-11-25T01:43:07.241Z,-28.2
2022-11-25T01:45:08.665Z,-28.5
2022-11-25T01:51:13.043Z,-28.3
2022-11-25T01:53:14.858Z,-28.6
2022-11-25T01:55:16.802Z,-28.4
2022-11-25T01:57:17.989Z,-28.3
2022-11-25T01:59:19.783Z,-28.3
2022-11-25T02:01:22.033Z,-28.4
2022-11-25T02:03:23.034Z,-28.2
2022-11-25T02:05:27.390Z,-28.4
2022-11-25T02:07:27.187Z,-28.3
2022-11-25T02:09:28.455Z,-28.5
2022-11-25T02:11:29.988Z,-28.4
2022-11-25T02:13:31.892Z,-28.5
2022-11-25T02:15:32.972Z,-28.4
2022-11-25T02:17:34.103Z,-28.1
2022-11-25T02:19:35.659Z,-28.4
2022-11-25T02:21:37.490Z,-28.3
2022-11-25T02:23:39.023Z,-28.6
2022-11-25T02:25:40.193Z,-28.4
2022-11-25T02:27:41.987Z,-28.5
2022-11-25T02:29:43.488Z,-28.5
2022-11-25T02:33:46.883Z,-28.5
2022-11-25T02:35:48.490Z,-28.5
2022-11-25T02:37:50.184Z,-28.2
2022-11-25T02:39:51.325Z,-28.3
2022-11-25T02:41:53.300Z,-28.3
2022-11-25T02:43:54.656Z,-28.3
2022-11-25T02:45:56.039Z,-28.4
2022-11-25T02:47:57.696Z,-28.5
2022-11-25T02:49:58.849Z,-28.3
2022-11-25T02:52:00.338Z,-28.5
2022-11-25T02:54:02.185Z,-28.2
2022-11-25T02:56:03.733Z,-28.4
2022-11-25T02:58:05.459Z,-28
2022-11-25T03:00:06.559Z,-28.5
2022-11-25T03:02:08.764Z,-28.4
2022-11-25T03:04:10.357Z,-28.5
2022-11-25T03:06:11.448Z,-28
2022-11-25T03:08:12.713Z,-28.4
2022-11-25T03:10:13.833Z,-28.4
2022-11-25T03:12:14.889Z,-28.2
2022-11-25T03:14:16.687Z,-28.6
2022-11-25T03:16:18.023Z,-28.4
2022-11-25T03:18:19.878Z,-28.3
2022-11-25T03:20:21.333Z,-28.3
2022-11-25T03:22:23.295Z,-28.4
2022-11-25T03:24:24.940Z,-28.4
2022-11-25T03:26:26.647Z,-28.4
2022-11-25T03:32:31.338Z,-28.5
2022-11-25T03:34:32.953Z,-28.5
2022-11-25T03:36:34.747Z,-28.3
2022-11-25T03:38:36.197Z,-28.2
2022-11-25T03:40:38.147Z,-28.2
2022-11-25T03:42:39.763Z,-28.3
2022-11-25T03:44:41.359Z,-28.4
2022-11-25T03:46:43.135Z,-28.3
2022-11-25T03:48:45.070Z,-28.2
2022-11-25T03:52:48.022Z,-28.3
2022-11-25T03:54:49.539Z,-28.4
2022-11-25T03:56:51.075Z,-28.3
2022-11-25T03:58:52.255Z,-28.4
2022-11-25T04:00:53.887Z,-28.4
2022-11-25T04:02:55.098Z,-28.5
2022-11-25T04:04:56.773Z,-28.4
2022-11-25T04:06:58.152Z,-28.4
2022-11-25T04:09:43.876Z,-28.3
2022-11-25T04:11:45.591Z,-28.4
2022-11-25T04:13:46.737Z,-28.2
2022-11-25T04:17:49.651Z,-28.3
2022-11-25T04:19:50.774Z,-28.5
2022-11-25T04:23:54.252Z,-28.4
2022-11-25T04:25:56.014Z,-28.4
2022-11-25T04:27:57.925Z,-28.3
2022-11-25T04:29:59.236Z,-28.5
2022-11-25T04:36:03.521Z,-28.3
2022-11-25T04:38:05.326Z,-28.5
2022-11-25T04:40:06.765Z,-28.4
2022-11-25T04:42:08.117Z,-28.5
2022-11-25T04:44:09.497Z,-28.3
2022-11-25T04:46:14.998Z,-28.4
2022-11-25T04:48:12.649Z,-28.4
2022-11-25T04:50:14.488Z,-28.3
2022-11-25T04:52:16.347Z,-28.3
2022-11-25T04:54:18.259Z,-28.3
2022-11-25T04:56:19.437Z,-28.5
2022-11-25T04:58:20.874Z,-28.4
2022-11-25T05:00:22.806Z,-28.4
2022-11-25T05:02:24.048Z,-28.4
2022-11-25T05:04:25.796Z,-28.4
2022-11-25T05:06:27.866Z,-28.3
2022-11-25T05:08:29.469Z,-28.3
2022-11-25T05:10:31.231Z,-28.4
2022-11-25T05:12:32.952Z,-28.5
2022-11-25T05:14:34.523Z,-28.4
2022-11-25T05:18:36.765Z,-28.7
2022-11-25T05:20:38.712Z,-28.5
2022-11-25T05:22:40.380Z,-28.4
2022-11-25T05:24:42.395Z,-28.4
2022-11-25T05:26:43.782Z,-28.5
2022-11-25T05:28:45.556Z,-28.6
2022-11-25T05:30:47.181Z,-28.4
2022-11-25T05:32:48.989Z,-28.5
2022-11-25T05:34:50.166Z,-28.4
2022-11-25T05:36:51.345Z,-28.4
2022-11-25T05:38:52.588Z,-28.5
2022-11-25T05:40:53.721Z,-28.4
2022-11-25T05:42:55.177Z,-28.4
2022-11-25T05:44:56.669Z,-28.3
2022-11-25T05:46:58.304Z,-28.4
2022-11-25T05:48:59.557Z,-28.4
2022-11-25T05:51:01.349Z,-28.5
2022-11-25T05:53:03.092Z,-28.5
2022-11-25T05:55:04.667Z,-28.2
2022-11-25T05:57:06.643Z,-28.3
2022-11-25T05:59:08.000Z,-28.4
2022-11-25T06:01:09.834Z,-28.3
2022-11-25T06:05:13.241Z,-28.5
2022-11-25T06:07:14.505Z,-28.4
2022-11-25T06:09:15.714Z,-28.5
2022-11-25T06:11:17.082Z,-28.2
2022-11-25T06:17:22.370Z,-28.3
2022-11-25T06:19:24.250Z,-28.6
2022-11-25T06:21:25.746Z,-28.4
2022-11-25T06:23:27.445Z,-28.5
2022-11-25T06:25:28.676Z,-28.4
2022-11-25T06:27:44.198Z,-28.5
2022-11-25T06:29:31.385Z,-28.3
2022-11-25T06:31:32.738Z,-28
2022-11-25T06:33:33.842Z,-28.6
2022-11-25T06:35:34.990Z,-28.5
2022-11-25T06:37:36.230Z,-28.4
2022-11-25T06:39:37.564Z,-28.3
2022-11-25T06:41:38.672Z,-28.4
2022-11-25T06:43:40.630Z,-28.4
2022-11-25T06:45:42.275Z,-28.2
2022-11-25T06:47:44.302Z,-28.6
2022-11-25T06:49:45.777Z,-28.5
2022-11-25T06:51:47.231Z,-28.2
2022-11-25T06:53:49.217Z,-28.4
2022-11-25T06:55:50.719Z,-28.2
2022-11-25T06:59:53.122Z,-28.2
2022-11-25T07:01:54.352Z,-28.2
2022-11-25T07:03:56.173Z,-28.3
2022-11-25T07:05:58.151Z,-28.4
2022-11-25T07:07:59.608Z,-28.2
2022-11-25T07:10:00.776Z,-28.4
2022-11-25T07:12:02.791Z,-28.3
2022-11-25T07:14:04.040Z,-28.4
2022-11-25T07:16:05.470Z,-28.2
2022-11-25T07:18:06.502Z,-28.5
2022-11-25T07:20:08.372Z,-28.3
2022-11-25T07:22:09.933Z,-28.4
2022-11-25T07:24:11.792Z,-28.4
2022-11-25T07:26:13.153Z,-28.6
2022-11-25T07:28:14.389Z,-28.5
2022-11-25T07:32:17.990Z,-28.6
2022-11-25T07:34:20.121Z,-28.2
2022-11-25T07:36:20.823Z,-28.4
2022-11-25T07:38:22.701Z,-28.4
2022-11-25T07:40:24.669Z,-28.2
2022-11-25T07:42:25.985Z,-28.2
2022-11-25T07:44:27.662Z,-28.1
2022-11-25T07:46:29.740Z,-28.2
2022-11-25T07:48:31.572Z,-28.3
2022-11-25T07:50:33.168Z,15.6
2022-11-25T07:52:35.106Z,71.3
2022-11-25T07:54:36.239Z,81.1
2022-11-25T07:56:37.315Z,81
2022-11-25T07:58:42.897Z,81
2022-11-25T08:02:41.890Z,81.5
2022-11-25T08:04:42.760Z,81.3
2022-11-25T08:06:43.767Z,81.19
2022-11-25T08:08:44.827Z,81.19
2022-11-25T08:14:48.934Z,81.1
2022-11-25T08:16:50.839Z,81.3
2022-11-25T08:18:52.315Z,81.3
2022-11-25T08:20:53.384Z,81
2022-11-25T08:22:55.175Z,81.4
2022-11-25T08:24:56.144Z,81.4
2022-11-25T08:26:57.925Z,81.4
2022-11-25T08:28:59.785Z,81.6
2022-11-25T08:31:00.874Z,81.6
2022-11-25T08:33:02.556Z,81.5
2022-11-25T08:35:04.198Z,81.5
2022-11-25T08:37:05.905Z,81.6
2022-11-25T08:39:22.815Z,81.3
2022-11-25T08:41:08.111Z,81.6
2022-11-25T08:43:09.200Z,81.6
2022-11-25T08:45:10.498Z,81.69
2022-11-25T08:47:11.905Z,81.8
2022-11-25T08:51:15.221Z,81.69
2022-11-25T08:53:16.883Z,81.69
2022-11-25T08:55:17.879Z,81.6
2022-11-25T08:57:19.295Z,81.9
2022-11-25T08:59:21.090Z,81.8
2022-11-25T09:01:22.844Z,81.5
2022-11-25T09:03:24.241Z,82
2022-11-25T09:05:25.698Z,81.9
2022-11-25T09:07:30.616Z,81.5
2022-11-25T09:13:31.580Z,19.4
2022-11-25T09:15:33.247Z,23.3
2022-11-25T09:17:34.546Z,17.9
2022-11-25T09:19:36.323Z,21.7
2022-11-25T09:21:37.230Z,29.8
2022-11-25T09:23:38.252Z,52.8
2022-11-25T09:27:41.161Z,82.1
2022-11-25T09:29:42.257Z,81.8
2022-11-25T09:31:43.249Z,81.8
2022-11-25T09:33:44.691Z,81.8
2022-11-25T09:37:47.957Z,81.9
2022-11-25T09:39:49.517Z,12.6
2022-11-25T09:43:52.626Z,7.2
2022-11-25T09:45:54.448Z,12.4
2022-11-25T09:47:57.934Z,20.29
2022-11-25T09:49:57.563Z,27.3
2022-11-25T09:53:59.804Z,81.9
2022-11-25T09:56:01.694Z,81.9
2022-11-25T09:58:02.499Z,-6.8
2022-11-25T10:00:03.551Z,-9.1
2022-11-25T10:04:06.532Z,4.5
2022-11-25T10:06:07.978Z,0
2022-11-25T10:10:10.645Z,-20.5
2022-11-25T10:12:11.999Z,-20.8
2022-11-25T10:14:13.849Z,-16.4
2022-11-25T10:16:15.461Z,-16.7
2022-11-25T10:22:19.762Z,-11.5
2022-11-25T10:24:21.463Z,-9.8
2022-11-25T10:26:23.177Z,-11.5
2022-11-25T10:28:24.906Z,-12.5
2022-11-25T10:30:26.140Z,-17.2
2022-11-25T10:32:27.418Z,-25.2
2022-11-25T10:34:28.665Z,-22.4
2022-11-25T10:36:29.867Z,-24.7
2022-11-25T10:38:30.944Z,-24.4
2022-11-25T10:40:32.796Z,-27.2
2022-11-25T10:42:34.585Z,-27.9
2022-11-25T10:44:36.682Z,-28.4
2022-11-25T10:46:57.368Z,-27
2022-11-25T10:48:43.988Z,-28.3
2022-11-25T10:50:41.388Z,-28.4
2022-11-25T10:52:43.175Z,-27.8
2022-11-25T10:55:28.353Z,-28.5
2022-11-25T10:57:29.360Z,-28.6
2022-11-25T10:59:30.776Z,-28.6
2022-11-25T11:01:32.167Z,-28.7
2022-11-25T11:03:33.271Z,-28.3
2022-11-25T11:05:35.023Z,-28.4
2022-11-25T11:07:36.121Z,-28.4
2022-11-25T11:09:37.675Z,-28.5
2022-11-25T11:11:39.084Z,-28.7
2022-11-25T11:15:41.797Z,-28.3
2022-11-25T11:17:43.528Z,-28.6
2022-11-25T11:19:44.655Z,-27.4
2022-11-25T11:21:45.590Z,-27.2
2022-11-25T11:23:46.930Z,-18.79
2022-11-25T11:25:48.209Z,-17.6
2022-11-25T11:31:52.505Z,-19
2022-11-25T11:33:53.833Z,-18.7
2022-11-25T11:35:55.118Z,-18.7
2022-11-25T11:37:56.220Z,-19.4
2022-11-25T11:39:57.484Z,-18.79
2022-11-25T11:41:59.068Z,-20.5
2022-11-25T11:46:02.248Z,-28.4
2022-11-25T11:48:04.026Z,-28
2022-11-25T11:52:07.609Z,-28.4
2022-11-25T11:56:34.022Z,-11
2022-11-25T11:58:11.495Z,-12.9
2022-11-25T12:02:15.224Z,-17.9
2022-11-25T12:04:16.672Z,-24
2022-11-25T12:06:18.323Z,-26.2
2022-11-25T12:08:19.336Z,-26.9
2022-11-25T12:14:23.525Z,-28
2022-11-25T12:16:25.378Z,-27.9
2022-11-25T12:18:27.185Z,-28
2022-11-25T12:22:29.762Z,-28.4
2022-11-25T12:24:31.141Z,-28.3
2022-11-25T12:28:34.275Z,-28.2
2022-11-25T12:30:35.261Z,-28.4
2022-11-25T12:32:36.341Z,-28.5
2022-11-25T12:34:38.398Z,-28.6
2022-11-25T12:40:42.619Z,-28.4
2022-11-25T12:42:44.181Z,-28.6
2022-11-25T12:44:45.629Z,-28
2022-11-25T12:46:46.993Z,-28.3
2022-11-25T12:48:48.483Z,-28.4
2022-11-25T12:50:49.883Z,-28.4
2022-11-25T12:52:51.763Z,-27.8
2022-11-25T12:54:52.845Z,-27.6
2022-11-25T12:56:53.790Z,-27.8
2022-11-25T12:58:55.540Z,-28.3
2022-11-25T13:00:56.867Z,-28.7
2022-11-25T13:02:57.960Z,-28.4
2022-11-25T13:05:13.051Z,-28.4
2022-11-25T13:07:00.607Z,-28.2
2022-11-25T13:09:02.096Z,-28.3
2022-11-25T13:11:03.927Z,-28.4
2022-11-25T13:13:05.042Z,-28.4
2022-11-25T13:15:06.491Z,-28.3
2022-11-25T13:17:07.477Z,-27.7
2022-11-25T13:19:08.289Z,-15.8
2022-11-25T13:21:09.272Z,-20.6
2022-11-25T13:23:10.978Z,-20.8
2022-11-25T13:25:12.098Z,-24.4
2022-11-25T13:27:13.087Z,-27.8
2022-11-25T13:29:15.010Z,-28.6
2022-11-25T13:31:16.220Z,-28.3
2022-11-25T13:33:17.805Z,-28.5
2022-11-25T13:35:19.398Z,-28.5
2022-11-25T13:37:20.570Z,-28.4
2022-11-25T13:39:22.252Z,-28.4
2022-11-25T13:41:23.698Z,-28.3
2022-11-25T13:43:24.766Z,-28.4
2022-11-25T13:45:26.470Z,-28.7
2022-11-25T13:47:27.684Z,-28.2
2022-11-25T13:49:28.777Z,-28.4
2022-11-25T13:55:33.667Z,-28.3
2022-11-25T13:57:34.793Z,-28.5
2022-11-25T13:59:36.587Z,-28.4
2022-11-25T14:01:37.817Z,-28.2
2022-11-25T14:03:39.494Z,-28.5
2022-11-25T14:05:41.372Z,-28.3
2022-11-25T14:09:43.613Z,-28.4
2022-11-25T14:11:44.785Z,-28.5
2022-11-25T14:13:46.113Z,-28.3
2022-11-25T14:15:47.906Z,-28.5
2022-11-25T14:17:49.513Z,-28.3
2022-11-25T14:21:52.906Z,-28.5
2022-11-25T14:25:56.193Z,-28.3
2022-11-25T14:28:02.450Z,-28.7
2022-11-25T14:29:59.551Z,-28.5
2022-11-25T14:32:00.999Z,-28.2
2022-11-25T14:38:05.097Z,-28.5
2022-11-25T14:40:06.287Z,-28.3
2022-11-25T14:42:07.930Z,-28
2022-11-25T14:44:08.932Z,-28.4
2022-11-25T14:46:10.656Z,-28.2
2022-11-25T14:48:11.895Z,-28.3
2022-11-25T14:52:15.050Z,-28.4
2022-11-25T14:54:16.084Z,-28.5
2022-11-25T14:56:17.752Z,-28.4
2022-11-25T14:58:19.545Z,-28.4
2022-11-25T15:02:22.741Z,-28.5
2022-11-25T15:04:24.449Z,-28.6
2022-11-25T15:08:26.512Z,-28.6
2022-11-25T15:10:27.500Z,-28.6
2022-11-25T15:12:29.221Z,-28.5
2022-11-25T15:14:30.671Z,-27.9
2022-11-25T15:18:33.684Z,-28.4
2022-11-25T15:20:34.817Z,-28.4
2022-11-25T15:22:36.742Z,-28.1
2022-11-25T15:24:38.023Z,-28.4
2022-11-25T15:28:40.805Z,-28.3
2022-11-25T15:30:42.456Z,-28.5
2022-11-25T15:32:44.260Z,-28.3
2022-11-25T15:34:45.697Z,-28.4
2022-11-25T15:36:51.089Z,-28.3
2022-11-25T15:38:48.647Z,-28.4
2022-11-25T15:40:49.713Z,-28.4
2022-11-25T15:42:50.747Z,-28.2
2022-11-25T15:44:52.503Z,-28.8
2022-11-25T15:46:54.228Z,-28.3
2022-11-25T15:50:57.180Z,-28.3
2022-11-25T15:52:58.442Z,-28.6
2022-11-25T15:55:00.181Z,-28.1
2022-11-25T15:57:01.362Z,-28.4
2022-11-25T16:03:05.364Z,-28.5
2022-11-25T16:05:06.956Z,-28.5
2022-11-25T16:07:08.886Z,-28.5
2022-11-25T16:09:10.277Z,-28.2
2022-11-25T16:11:11.765Z,-28.3
2022-11-25T16:13:16.834Z,-28.3
2022-11-25T16:15:14.616Z,-28.4
2022-11-25T16:17:16.042Z,-28.3
2022-11-25T16:19:17.509Z,-28.5
2022-11-25T16:21:19.452Z,-28.5
2022-11-25T16:23:20.549Z,-28.3
2022-11-25T16:25:21.548Z,-28.4
2022-11-25T16:27:23.231Z,-28.3
2022-11-25T16:29:24.857Z,-28.5
2022-11-25T16:31:26.006Z,-28.5
2022-11-25T16:33:27.341Z,-28.5
2022-11-25T16:35:28.795Z,-28.3
2022-11-25T16:37:29.845Z,-28.3
2022-11-25T16:39:31.245Z,-28.4
2022-11-25T16:41:32.530Z,-28.6
2022-11-25T16:43:33.875Z,-28.5
2022-11-25T16:45:35.733Z,-28.4
2022-11-25T16:47:36.850Z,-28.4
2022-11-25T16:49:39.136Z,-28.3
2022-11-25T16:51:40.232Z,-28.4
2022-11-25T16:53:41.906Z,-28.5
2022-11-25T16:55:42.903Z,-28.5
2022-11-25T17:01:47.663Z,-28.3
2022-11-25T17:03:48.603Z,-28.4
2022-11-25T17:05:49.778Z,-28.3
2022-11-25T17:07:51.139Z,-28.3
2022-11-25T17:09:52.199Z,-28.4
2022-11-25T17:11:53.474Z,-28.7
2022-11-25T17:13:54.991Z,-28.4
2022-11-25T17:17:58.367Z,-28.4
2022-11-25T17:19:59.371Z,-28.3
2022-11-25T17:22:01.199Z,-28.3
2022-11-25T17:28:05.348Z,-28.5
2022-11-25T17:30:06.907Z,-28.6
2022-11-25T17:32:08.818Z,-28.4
2022-11-25T17:34:10.686Z,-28.4
2022-11-25T17:36:12.208Z,-28.4
2022-11-25T17:38:13.388Z,-28.6
2022-11-25T17:38:57.225Z,-28.3
2022-11-25T17:42:59.650Z,-28.2
2022-11-25T17:45:01.388Z,-28.4
2022-11-25T17:47:02.739Z,-28.4
2022-11-25T17:49:03.854Z,-28.4
2022-11-25T17:51:07.500Z,-28.6
2022-11-25T17:53:06.950Z,-28.6
2022-11-25T17:55:08.113Z,-28.3
2022-11-25T17:57:09.184Z,-28.2
2022-11-25T17:59:10.308Z,-28.4
2022-11-25T18:01:11.372Z,-28.3
2022-11-25T18:03:12.444Z,-28.4
2022-11-25T18:05:14.249Z,-28.6
2022-11-25T18:09:17.568Z,-28.4
2022-11-25T18:11:19.414Z,-28.5
2022-11-25T18:13:20.820Z,-28.3
2022-11-25T18:15:21.955Z,-28.4
2022-11-25T18:21:26.503Z,-28.4
2022-11-25T18:23:27.618Z,-28.3
2022-11-25T18:25:28.867Z,-28.4
2022-11-25T18:27:30.608Z,-28.4
2022-11-25T18:29:31.808Z,-28.5
2022-11-25T18:31:33.557Z,-28.3
2022-11-25T18:33:34.958Z,-28.6
2022-11-25T18:35:37.040Z,-28
2022-11-25T18:37:37.312Z,-28.4
2022-11-25T18:39:38.781Z,-28.3
2022-11-25T18:41:39.950Z,-28.5
2022-11-25T18:43:41.604Z,-28.5
2022-11-25T18:45:42.820Z,-28.5
2022-11-25T18:47:44.180Z,-28.3
2022-11-25T18:49:45.357Z,-28.6
2022-11-25T18:51:46.564Z,-28.6
2022-11-25T18:53:48.427Z,-28.5
2022-11-25T18:57:51.520Z,-28.3
2022-11-25T19:00:10.532Z,-28.4
2022-11-25T19:01:54.618Z,-28.6
2022-11-25T19:03:55.666Z,-28.3
2022-11-25T19:07:58.912Z,-28.3
2022-11-25T19:10:00.000Z,-28.6
2022-11-25T19:12:01.394Z,-28.2
2022-11-25T19:14:02.998Z,-28.4
2022-11-25T19:20:07.566Z,-28.1
2022-11-25T19:22:09.101Z,-28.3
2022-11-25T19:24:10.237Z,-28.5
2022-11-25T19:26:12.152Z,-28.3
2022-11-25T19:28:13.553Z,-28.3
2022-11-25T19:30:14.566Z,-28.3
2022-11-25T19:34:16.552Z,-28.4
2022-11-25T19:36:17.793Z,-28.5
2022-11-25T19:38:18.779Z,-28.4
2022-11-25T19:40:20.551Z,-28.4
2022-11-25T19:46:29.265Z,-28.6
2022-11-25T19:48:26.818Z,-28.2
2022-11-25T19:50:28.284Z,-28.5
2022-11-25T19:52:29.604Z,-28.5
2022-11-25T19:54:31.212Z,-28.5
2022-11-25T19:56:32.179Z,-28.5
2022-11-25T19:58:34.018Z,-28.4
2022-11-25T20:00:35.597Z,-28.4
2022-11-25T20:02:36.962Z,-28.6
2022-11-25T20:04:38.781Z,-28.7
2022-11-25T20:06:40.472Z,-28.3
2022-11-25T20:08:41.661Z,-28.6
2022-11-25T20:10:42.950Z,-28.5
2022-11-25T20:12:44.671Z,-28.5
2022-11-25T20:16:57.379Z,-28.4
2022-11-25T20:18:50.253Z,-28.4
2022-11-25T20:20:52.003Z,-28.3
2022-11-25T20:22:53.620Z,-28.3
2022-11-25T20:24:55.333Z,-28.5
2022-11-25T20:28:58.146Z,-28.5
2022-11-25T20:33:00.814Z,-28.7
2022-11-25T20:35:02.222Z,-28.6
2022-11-25T20:37:03.958Z,-28.4
2022-11-25T20:39:05.702Z,-28.5
2022-11-25T20:41:07.468Z,-28.6
2022-11-25T20:43:08.850Z,-28.5
2022-11-25T20:45:09.835Z,-28.2
2022-11-25T20:47:11.460Z,-28.4
2022-11-25T20:49:12.948Z,-28.4
2022-11-25T20:51:14.214Z,-28.3
2022-11-25T20:53:15.983Z,-28.3
2022-11-25T20:55:16.892Z,-28.5
2022-11-25T20:57:18.394Z,-28.5
2022-11-25T20:59:19.907Z,-28.4
2022-11-25T21:01:21.458Z,-28.5
2022-11-25T21:03:22.477Z,-28.4
2022-11-25T21:05:23.596Z,-28.3
2022-11-25T21:07:25.216Z,-28.4
2022-11-25T21:09:26.994Z,-28.4
2022-11-25T21:11:27.998Z,-28.3
2022-11-25T21:13:29.297Z,-28.4
2022-11-25T21:15:30.555Z,-28.3
2022-11-25T21:17:31.678Z,-28.3
2022-11-25T21:19:33.040Z,-28.4
2022-11-25T21:21:34.692Z,-28.5
2022-11-25T21:23:36.013Z,-28.4
2022-11-25T21:27:39.023Z,-28.6
2022-11-25T21:29:41.025Z,-28.5
2022-11-25T21:31:42.817Z,-28.3
2022-11-25T21:33:44.159Z,-28.3
2022-11-25T21:35:46.103Z,-28.3
2022-11-25T21:37:47.634Z,-28.3
2022-11-25T21:39:49.367Z,-28.5
2022-11-25T21:41:51.304Z,-28.3
2022-11-25T21:43:53.156Z,-28.2
2022-11-25T21:45:54.867Z,-28.3
2022-11-25T21:47:56.487Z,-28.6
2022-11-25T21:49:58.423Z,-28.6
2022-11-25T21:52:00.006Z,-28.3
2022-11-25T21:54:01.501Z,-28.6
2022-11-25T21:56:03.356Z,-28.6
2022-11-25T21:58:05.092Z,-28.5
2022-11-25T22:00:06.547Z,-28.2
2022-11-25T22:02:07.678Z,-28.4
2022-11-25T22:04:09.084Z,-28.2
2022-11-25T22:06:10.695Z,-28.4
2022-11-25T22:10:14.014Z,-28.3
2022-11-25T22:12:15.656Z,-28.5
2022-11-25T22:14:16.755Z,-28.2
2022-11-25T22:16:18.797Z,-28
2022-11-25T22:18:20.237Z,-28.4
2022-11-25T22:20:22.107Z,-28.5
2022-11-25T22:22:23.640Z,-28.8
2022-11-25T22:24:25.279Z,-28.5
2022-11-25T22:26:26.710Z,-28.6
2022-11-25T22:28:28.101Z,-28.5
2022-11-25T22:30:29.648Z,-28.6
2022-11-25T22:32:31.280Z,-28.5
2022-11-25T22:34:32.889Z,-28.5
2022-11-25T22:36:34.036Z,-28.4
2022-11-25T22:38:35.039Z,-28.3
2022-11-25T22:40:37.003Z,-28.3
2022-11-25T22:42:37.985Z,-28.4
2022-11-25T22:46:40.821Z,-28.4
2022-11-25T22:48:42.633Z,-28.4
2022-11-25T22:50:43.734Z,-28.2
2022-11-25T22:52:45.470Z,-28.3
2022-11-25T22:54:47.013Z,-28.4
2022-11-25T22:56:48.072Z,-28.3
2022-11-25T22:58:49.721Z,-28.5
2022-11-25T23:00:50.882Z,-28.5
2022-11-25T23:02:52.191Z,-28.6
2022-11-25T23:08:56.317Z,-28.5
2022-11-25T23:10:57.857Z,-28.2
2022-11-25T23:12:59.605Z,-27.9
2022-11-25T23:15:01.459Z,-28.2
2022-11-25T23:17:02.819Z,-28
2022-11-25T23:19:04.598Z,-28.2
2022-11-25T23:23:07.565Z,-28.2
2022-11-25T23:25:08.593Z,-28.2
2022-11-25T23:27:10.249Z,-28.6
2022-11-25T23:29:11.782Z,-28.3
2022-11-25T23:33:15.185Z,-28.4
2022-11-25T23:35:16.188Z,-28.5
2022-11-25T23:37:17.591Z,-28.4
2022-11-25T23:39:18.598Z,-28.4
2022-11-25T23:41:19.650Z,-28.6
2022-11-25T23:43:21.585Z,-28.3
2022-11-25T23:45:23.518Z,-28.4
2022-11-25T23:47:24.382Z,-28.5
2022-11-25T23:49:25.867Z,-28.4
2022-11-25T23:51:26.870Z,-28.4
2022-11-25T23:53:27.921Z,-28.5
2022-11-25T23:55:28.998Z,-28.6
2022-11-25T23:57:30.808Z,-28.4
2022-11-25T23:59:32.741Z,-28.4
